メインページ
METAR-TAF:

METAR-TAF

空港 :

シモン・ボリバル国際空港

カラカス, ベネズエラ

緯度: 10-36N, 経度: 066-59W, 海抜: 43m

現時点の気象観測

当レポートは25分前の11:00(UTC)に作成
南東の風 1kt
気温 24°C
湿度 89%
気圧 1013 hPa
視程10km以上
高度1600ftの雲は散在している

METAR: SVMI 141100Z 14001KT 9999 SCT016 24/22 Q1013

時間: 07:25 (11:25 UTC)

予報

当レポートは7時間25分前の04:00(UTC)に作成
予報は14日の 06時(UTC)から 15日の 06時(UTC)まで有効
の風 kt
視程10km以上
高度1600ftの雲は散在している
14日の 06時(UTC)から 14日の 10時(UTC)まで一時的に
高度1600ftの雲はほとんどない

TAF: SVMI 140400Z 1406/1506 00000KT 9999 SCT016 TX33/18Z TN25/08Z TEMPO 1406/1410 FEW016

4,000以上の空港の気象観測と天気予報(METAR報とTAF報)

利用可能な観測所は地図上に黄色い丸と赤い丸で示す。

丸の上にカーソルを重ねると観測所名を参照できる。

次にクリックすると気象観測と天気予報を参照できる。

マップの切り替え:黒色「×」印の緑ボタンをクリックして拡大、「-」印の緑ボタンをクリックして縮小、緑色の三角印をクリックして隣りの地図に切り替え


METAR-TAF: